sensor_id;sensor_type;location;lat;lon;timestamp;P1;durP1;ratioP1;P2;durP2;ratioP2
23394;SDS011;11870;53.084;18.206;2022-10-16T00:01:30;51.65;;;28.05;;
23394;SDS011;11870;53.084;18.206;2022-10-16T00:03:59;50.25;;;27.92;;
23394;SDS011;11870;53.084;18.206;2022-10-16T00:06:27;52.33;;;28.55;;
23394;SDS011;11870;53.084;18.206;2022-10-16T00:08:54;51.35;;;28.75;;
23394;SDS011;11870;53.084;18.206;2022-10-16T00:11:25;47.65;;;27.38;;
23394;SDS011;11870;53.084;18.206;2022-10-16T00:13:59;53.97;;;27.70;;
23394;SDS011;11870;53.084;18.206;2022-10-16T00:16:27;52.80;;;28.40;;
23394;SDS011;11870;53.084;18.206;2022-10-16T00:18:53;51.83;;;28.58;;
23394;SDS011;11870;53.084;18.206;2022-10-16T00:21:24;55.47;;;29.90;;
23394;SDS011;11870;53.084;18.206;2022-10-16T00:24:02;52.97;;;29.02;;
23394;SDS011;11870;53.084;18.206;2022-10-16T00:26:31;50.80;;;28.73;;
23394;SDS011;11870;53.084;18.206;2022-10-16T00:28:58;56.33;;;29.67;;
23394;SDS011;11870;53.084;18.206;2022-10-16T00:31:24;55.55;;;29.75;;
23394;SDS011;11870;53.084;18.206;2022-10-16T00:33:51;54.80;;;29.50;;
23394;SDS011;11870;53.084;18.206;2022-10-16T00:36:18;51.90;;;27.88;;
23394;SDS011;11870;53.084;18.206;2022-10-16T00:38:46;58.80;;;29.92;;
23394;SDS011;11870;53.084;18.206;2022-10-16T00:41:13;58.65;;;29.63;;
23394;SDS011;11870;53.084;18.206;2022-10-16T00:43:42;53.17;;;29.48;;
23394;SDS011;11870;53.084;18.206;2022-10-16T00:46:16;56.28;;;29.20;;
23394;SDS011;11870;53.084;18.206;2022-10-16T00:48:45;56.55;;;29.83;;
23394;SDS011;11870;53.084;18.206;2022-10-16T00:51:22;58.92;;;30.35;;
23394;SDS011;11870;53.084;18.206;2022-10-16T00:53:52;57.63;;;30.55;;
23394;SDS011;11870;53.084;18.206;2022-10-16T00:56:18;61.20;;;30.77;;
23394;SDS011;11870;53.084;18.206;2022-10-16T00:58:44;57.13;;;30.20;;
23394;SDS011;11870;53.084;18.206;2022-10-16T01:01:10;57.15;;;30.85;;
23394;SDS011;11870;53.084;18.206;2022-10-16T01:03:36;59.50;;;30.25;;
23394;SDS011;11870;53.084;18.206;2022-10-16T01:06:06;54.92;;;29.65;;
23394;SDS011;11870;53.084;18.206;2022-10-16T01:09:09;53.38;;;28.73;;
23394;SDS011;11870;53.084;18.206;2022-10-16T01:11:31;54.53;;;28.42;;
23394;SDS011;11870;53.084;18.206;2022-10-16T01:14:02;53.53;;;27.67;;
23394;SDS011;11870;53.084;18.206;2022-10-16T01:16:37;54.05;;;27.52;;
23394;SDS011;11870;53.084;18.206;2022-10-16T01:21:47;56.63;;;28.23;;
23394;SDS011;11870;53.084;18.206;2022-10-16T01:32:45;52.13;;;27.45;;
23394;SDS011;11870;53.084;18.206;2022-10-16T01:38:11;50.17;;;26.70;;
23394;SDS011;11870;53.084;18.206;2022-10-16T01:40:35;60.13;;;27.45;;
23394;SDS011;11870;53.084;18.206;2022-10-16T01:43:08;50.13;;;27.17;;
23394;SDS011;11870;53.084;18.206;2022-10-16T01:45:38;48.92;;;26.98;;
23394;SDS011;11870;53.084;18.206;2022-10-16T01:48:07;49.30;;;27.27;;
23394;SDS011;11870;53.084;18.206;2022-10-16T01:50:38;47.58;;;26.92;;
23394;SDS011;11870;53.084;18.206;2022-10-16T01:53:07;50.28;;;26.88;;
23394;SDS011;11870;53.084;18.206;2022-10-16T01:55:37;46.85;;;26.10;;
23394;SDS011;11870;53.084;18.206;2022-10-16T01:58:09;44.53;;;25.73;;
23394;SDS011;11870;53.084;18.206;2022-10-16T02:00:38;46.28;;;24.88;;
23394;SDS011;11870;53.084;18.206;2022-10-16T02:03:07;48.75;;;27.20;;
23394;SDS011;11870;53.084;18.206;2022-10-16T02:08:12;50.00;;;26.45;;
23394;SDS011;11870;53.084;18.206;2022-10-16T02:10:38;46.75;;;25.77;;
23394;SDS011;11870;53.084;18.206;2022-10-16T02:13:19;46.10;;;26.77;;
23394;SDS011;11870;53.084;18.206;2022-10-16T02:15:52;49.85;;;26.10;;
23394;SDS011;11870;53.084;18.206;2022-10-16T02:18:18;44.08;;;25.63;;
23394;SDS011;11870;53.084;18.206;2022-10-16T02:20:55;48.63;;;25.00;;
23394;SDS011;11870;53.084;18.206;2022-10-16T02:23:58;46.97;;;25.73;;
23394;SDS011;11870;53.084;18.206;2022-10-16T02:26:29;46.80;;;25.20;;
23394;SDS011;11870;53.084;18.206;2022-10-16T02:29:03;47.65;;;26.45;;
23394;SDS011;11870;53.084;18.206;2022-10-16T02:31:34;44.65;;;25.33;;
23394;SDS011;11870;53.084;18.206;2022-10-16T02:34:03;46.45;;;25.48;;
23394;SDS011;11870;53.084;18.206;2022-10-16T02:36:31;49.58;;;26.88;;
23394;SDS011;11870;53.084;18.206;2022-10-16T02:39:00;45.75;;;25.90;;
23394;SDS011;11870;53.084;18.206;2022-10-16T02:41:26;52.25;;;26.58;;
23394;SDS011;11870;53.084;18.206;2022-10-16T02:43:53;49.00;;;25.38;;
23394;SDS011;11870;53.084;18.206;2022-10-16T02:46:20;50.10;;;26.23;;
23394;SDS011;11870;53.084;18.206;2022-10-16T02:48:46;46.35;;;26.63;;
23394;SDS011;11870;53.084;18.206;2022-10-16T02:51:12;49.13;;;26.02;;
23394;SDS011;11870;53.084;18.206;2022-10-16T02:53:38;48.63;;;26.52;;
23394;SDS011;11870;53.084;18.206;2022-10-16T02:56:04;48.13;;;25.77;;
23394;SDS011;11870;53.084;18.206;2022-10-16T02:58:30;53.78;;;27.38;;
23394;SDS011;11870;53.084;18.206;2022-10-16T03:00:56;46.53;;;25.42;;
23394;SDS011;11870;53.084;18.206;2022-10-16T03:03:22;53.00;;;29.10;;
23394;SDS011;11870;53.084;18.206;2022-10-16T03:05:48;46.97;;;26.92;;
23394;SDS011;11870;53.084;18.206;2022-10-16T03:08:14;50.35;;;27.83;;
23394;SDS011;11870;53.084;18.206;2022-10-16T03:10:40;48.08;;;27.98;;
23394;SDS011;11870;53.084;18.206;2022-10-16T03:13:06;48.08;;;25.67;;
23394;SDS011;11870;53.084;18.206;2022-10-16T03:15:32;48.53;;;26.17;;
23394;SDS011;11870;53.084;18.206;2022-10-16T03:17:58;46.00;;;25.67;;
23394;SDS011;11870;53.084;18.206;2022-10-16T03:20:24;46.60;;;26.20;;
23394;SDS011;11870;53.084;18.206;2022-10-16T03:22:50;47.42;;;26.20;;
23394;SDS011;11870;53.084;18.206;2022-10-16T03:25:16;41.30;;;24.67;;
23394;SDS011;11870;53.084;18.206;2022-10-16T03:27:42;47.40;;;25.63;;
23394;SDS011;11870;53.084;18.206;2022-10-16T03:30:08;44.95;;;25.17;;
23394;SDS011;11870;53.084;18.206;2022-10-16T03:32:34;47.17;;;25.75;;
23394;SDS011;11870;53.084;18.206;2022-10-16T03:35:00;45.47;;;25.63;;
23394;SDS011;11870;53.084;18.206;2022-10-16T03:37:26;45.58;;;25.90;;
23394;SDS011;11870;53.084;18.206;2022-10-16T03:39:52;42.53;;;24.77;;
23394;SDS011;11870;53.084;18.206;2022-10-16T03:42:18;42.13;;;23.73;;
23394;SDS011;11870;53.084;18.206;2022-10-16T03:44:44;41.33;;;24.00;;
23394;SDS011;11870;53.084;18.206;2022-10-16T03:47:10;41.88;;;24.42;;
23394;SDS011;11870;53.084;18.206;2022-10-16T03:49:36;44.67;;;24.80;;
23394;SDS011;11870;53.084;18.206;2022-10-16T03:52:02;42.45;;;25.42;;
23394;SDS011;11870;53.084;18.206;2022-10-16T03:54:28;42.40;;;24.50;;
23394;SDS011;11870;53.084;18.206;2022-10-16T03:56:54;41.70;;;24.05;;
23394;SDS011;11870;53.084;18.206;2022-10-16T03:59:19;41.65;;;24.95;;
23394;SDS011;11870;53.084;18.206;2022-10-16T04:01:45;43.78;;;24.95;;
23394;SDS011;11870;53.084;18.206;2022-10-16T04:04:11;43.22;;;24.63;;
23394;SDS011;11870;53.084;18.206;2022-10-16T04:06:37;44.10;;;25.08;;
23394;SDS011;11870;53.084;18.206;2022-10-16T04:09:03;44.00;;;24.35;;
23394;SDS011;11870;53.084;18.206;2022-10-16T04:11:29;41.90;;;23.80;;
23394;SDS011;11870;53.084;18.206;2022-10-16T04:13:55;40.33;;;23.65;;
23394;SDS011;11870;53.084;18.206;2022-10-16T04:16:21;42.17;;;24.65;;
23394;SDS011;11870;53.084;18.206;2022-10-16T04:18:47;40.90;;;23.42;;
23394;SDS011;11870;53.084;18.206;2022-10-16T04:21:13;43.15;;;25.58;;
23394;SDS011;11870;53.084;18.206;2022-10-16T04:23:39;40.58;;;23.45;;
23394;SDS011;11870;53.084;18.206;2022-10-16T04:26:05;44.55;;;25.83;;
23394;SDS011;11870;53.084;18.206;2022-10-16T04:28:31;45.97;;;25.40;;
23394;SDS011;11870;53.084;18.206;2022-10-16T04:30:57;47.20;;;26.45;;
23394;SDS011;11870;53.084;18.206;2022-10-16T04:33:23;42.55;;;23.88;;
23394;SDS011;11870;53.084;18.206;2022-10-16T04:35:55;39.03;;;23.05;;
23394;SDS011;11870;53.084;18.206;2022-10-16T04:38:22;41.75;;;23.83;;
23394;SDS011;11870;53.084;18.206;2022-10-16T04:40:48;42.22;;;23.80;;
23394;SDS011;11870;53.084;18.206;2022-10-16T04:43:14;38.53;;;22.65;;
23394;SDS011;11870;53.084;18.206;2022-10-16T04:45:40;42.28;;;23.50;;
23394;SDS011;11870;53.084;18.206;2022-10-16T04:48:05;42.33;;;24.23;;
23394;SDS011;11870;53.084;18.206;2022-10-16T04:50:31;41.33;;;22.90;;
23394;SDS011;11870;53.084;18.206;2022-10-16T04:52:57;42.20;;;23.60;;
23394;SDS011;11870;53.084;18.206;2022-10-16T04:55:23;40.65;;;22.70;;
23394;SDS011;11870;53.084;18.206;2022-10-16T04:57:49;40.13;;;22.52;;
23394;SDS011;11870;53.084;18.206;2022-10-16T05:00:15;39.67;;;23.83;;
23394;SDS011;11870;53.084;18.206;2022-10-16T05:02:41;40.92;;;22.90;;
23394;SDS011;11870;53.084;18.206;2022-10-16T05:05:07;38.92;;;23.08;;
23394;SDS011;11870;53.084;18.206;2022-10-16T05:07:33;40.15;;;22.65;;
23394;SDS011;11870;53.084;18.206;2022-10-16T05:09:59;37.42;;;22.65;;
23394;SDS011;11870;53.084;18.206;2022-10-16T05:12:25;37.72;;;23.30;;
23394;SDS011;11870;53.084;18.206;2022-10-16T05:14:51;37.72;;;22.08;;
23394;SDS011;11870;53.084;18.206;2022-10-16T05:17:16;38.90;;;22.55;;
23394;SDS011;11870;53.084;18.206;2022-10-16T05:19:42;36.25;;;22.83;;
23394;SDS011;11870;53.084;18.206;2022-10-16T05:22:09;38.72;;;22.88;;
23394;SDS011;11870;53.084;18.206;2022-10-16T05:24:34;42.45;;;22.83;;
23394;SDS011;11870;53.084;18.206;2022-10-16T05:27:00;38.08;;;22.27;;
23394;SDS011;11870;53.084;18.206;2022-10-16T05:29:26;37.83;;;21.92;;
23394;SDS011;11870;53.084;18.206;2022-10-16T05:31:52;38.28;;;22.45;;
23394;SDS011;11870;53.084;18.206;2022-10-16T05:34:19;39.08;;;22.00;;
23394;SDS011;11870;53.084;18.206;2022-10-16T05:36:46;38.63;;;21.52;;
23394;SDS011;11870;53.084;18.206;2022-10-16T05:39:13;37.22;;;21.98;;
23394;SDS011;11870;53.084;18.206;2022-10-16T05:41:40;39.13;;;21.98;;
23394;SDS011;11870;53.084;18.206;2022-10-16T05:44:06;38.63;;;22.25;;
23394;SDS011;11870;53.084;18.206;2022-10-16T05:46:32;35.78;;;21.92;;
23394;SDS011;11870;53.084;18.206;2022-10-16T05:48:58;34.47;;;20.77;;
23394;SDS011;11870;53.084;18.206;2022-10-16T05:51:24;37.97;;;22.88;;
23394;SDS011;11870;53.084;18.206;2022-10-16T05:53:51;33.65;;;21.50;;
23394;SDS011;11870;53.084;18.206;2022-10-16T05:56:18;38.65;;;21.60;;
23394;SDS011;11870;53.084;18.206;2022-10-16T05:58:44;35.55;;;21.75;;
23394;SDS011;11870;53.084;18.206;2022-10-16T06:01:11;34.20;;;21.42;;
23394;SDS011;11870;53.084;18.206;2022-10-16T06:03:38;36.65;;;21.05;;
23394;SDS011;11870;53.084;18.206;2022-10-16T06:06:11;37.90;;;21.27;;
23394;SDS011;11870;53.084;18.206;2022-10-16T06:08:39;36.72;;;21.27;;
23394;SDS011;11870;53.084;18.206;2022-10-16T06:11:07;32.60;;;20.42;;
23394;SDS011;11870;53.084;18.206;2022-10-16T06:13:34;35.42;;;20.67;;
23394;SDS011;11870;53.084;18.206;2022-10-16T06:16:01;30.65;;;18.45;;
23394;SDS011;11870;53.084;18.206;2022-10-16T06:18:28;32.60;;;18.88;;
23394;SDS011;11870;53.084;18.206;2022-10-16T06:20:55;30.45;;;18.92;;
23394;SDS011;11870;53.084;18.206;2022-10-16T06:23:21;31.80;;;19.45;;
23394;SDS011;11870;53.084;18.206;2022-10-16T06:25:48;31.30;;;17.88;;
23394;SDS011;11870;53.084;18.206;2022-10-16T06:28:14;27.25;;;17.77;;
23394;SDS011;11870;53.084;18.206;2022-10-16T06:30:41;27.08;;;17.40;;
23394;SDS011;11870;53.084;18.206;2022-10-16T06:33:10;23.52;;;15.80;;
23394;SDS011;11870;53.084;18.206;2022-10-16T06:35:36;24.70;;;16.45;;
23394;SDS011;11870;53.084;18.206;2022-10-16T06:38:02;27.35;;;15.55;;
23394;SDS011;11870;53.084;18.206;2022-10-16T06:40:27;21.52;;;14.85;;
23394;SDS011;11870;53.084;18.206;2022-10-16T06:42:56;22.90;;;16.10;;
23394;SDS011;11870;53.084;18.206;2022-10-16T06:45:22;23.63;;;15.15;;
23394;SDS011;11870;53.084;18.206;2022-10-16T06:47:48;21.77;;;14.65;;
23394;SDS011;11870;53.084;18.206;2022-10-16T06:50:14;22.60;;;14.73;;
23394;SDS011;11870;53.084;18.206;2022-10-16T06:52:40;23.25;;;14.85;;
23394;SDS011;11870;53.084;18.206;2022-10-16T06:55:06;23.25;;;15.23;;
23394;SDS011;11870;53.084;18.206;2022-10-16T06:57:32;19.85;;;13.13;;
23394;SDS011;11870;53.084;18.206;2022-10-16T06:59:58;19.90;;;14.30;;
23394;SDS011;11870;53.084;18.206;2022-10-16T07:02:24;24.65;;;14.30;;
23394;SDS011;11870;53.084;18.206;2022-10-16T07:04:50;21.40;;;14.07;;
23394;SDS011;11870;53.084;18.206;2022-10-16T07:07:16;21.77;;;14.15;;
23394;SDS011;11870;53.084;18.206;2022-10-16T07:09:41;21.63;;;14.15;;
23394;SDS011;11870;53.084;18.206;2022-10-16T07:12:07;18.83;;;13.05;;
23394;SDS011;11870;53.084;18.206;2022-10-16T07:14:33;19.17;;;12.55;;
23394;SDS011;11870;53.084;18.206;2022-10-16T07:16:59;20.42;;;13.90;;
23394;SDS011;11870;53.084;18.206;2022-10-16T07:19:25;21.77;;;13.60;;
23394;SDS011;11870;53.084;18.206;2022-10-16T07:21:51;19.20;;;12.82;;
23394;SDS011;11870;53.084;18.206;2022-10-16T07:24:17;18.80;;;12.38;;
23394;SDS011;11870;53.084;18.206;2022-10-16T07:26:44;17.10;;;12.18;;
23394;SDS011;11870;53.084;18.206;2022-10-16T07:29:12;20.77;;;12.55;;
23394;SDS011;11870;53.084;18.206;2022-10-16T07:31:40;15.93;;;10.80;;
23394;SDS011;11870;53.084;18.206;2022-10-16T07:34:06;17.88;;;11.50;;
23394;SDS011;11870;53.084;18.206;2022-10-16T07:36:32;15.25;;;10.18;;
23394;SDS011;11870;53.084;18.206;2022-10-16T07:38:58;16.17;;;9.38;;
23394;SDS011;11870;53.084;18.206;2022-10-16T07:41:24;12.32;;;8.35;;
23394;SDS011;11870;53.084;18.206;2022-10-16T07:43:50;11.32;;;8.32;;
23394;SDS011;11870;53.084;18.206;2022-10-16T07:46:18;13.57;;;8.00;;
23394;SDS011;11870;53.084;18.206;2022-10-16T07:48:45;11.50;;;8.25;;
23394;SDS011;11870;53.084;18.206;2022-10-16T07:51:14;13.15;;;8.35;;
23394;SDS011;11870;53.084;18.206;2022-10-16T07:53:41;9.00;;;7.47;;
23394;SDS011;11870;53.084;18.206;2022-10-16T07:56:07;9.38;;;7.78;;
23394;SDS011;11870;53.084;18.206;2022-10-16T07:58:34;10.00;;;7.68;;
23394;SDS011;11870;53.084;18.206;2022-10-16T08:01:03;10.98;;;8.10;;
23394;SDS011;11870;53.084;18.206;2022-10-16T08:03:31;10.10;;;7.85;;
23394;SDS011;11870;53.084;18.206;2022-10-16T08:05:57;11.55;;;8.68;;
23394;SDS011;11870;53.084;18.206;2022-10-16T08:08:24;12.27;;;8.52;;
23394;SDS011;11870;53.084;18.206;2022-10-16T08:10:50;10.88;;;8.27;;
23394;SDS011;11870;53.084;18.206;2022-10-16T08:13:16;10.30;;;8.48;;
23394;SDS011;11870;53.084;18.206;2022-10-16T08:15:42;10.73;;;8.13;;
23394;SDS011;11870;53.084;18.206;2022-10-16T08:18:09;10.68;;;8.35;;
23394;SDS011;11870;53.084;18.206;2022-10-16T08:20:37;11.10;;;8.25;;
23394;SDS011;11870;53.084;18.206;2022-10-16T08:23:03;12.45;;;8.65;;
23394;SDS011;11870;53.084;18.206;2022-10-16T08:25:29;10.90;;;8.40;;
23394;SDS011;11870;53.084;18.206;2022-10-16T08:27:54;10.52;;;8.38;;
23394;SDS011;11870;53.084;18.206;2022-10-16T08:30:21;11.00;;;8.80;;
23394;SDS011;11870;53.084;18.206;2022-10-16T08:32:48;10.55;;;8.30;;
23394;SDS011;11870;53.084;18.206;2022-10-16T08:35:15;10.02;;;7.90;;
23394;SDS011;11870;53.084;18.206;2022-10-16T08:37:41;8.43;;;6.90;;
23394;SDS011;11870;53.084;18.206;2022-10-16T08:40:15;9.98;;;7.10;;
23394;SDS011;11870;53.084;18.206;2022-10-16T08:50:45;8.25;;;6.68;;
23394;SDS011;11870;53.084;18.206;2022-10-16T08:53:15;7.65;;;6.57;;
23394;SDS011;11870;53.084;18.206;2022-10-16T08:55:51;7.75;;;6.10;;
23394;SDS011;11870;53.084;18.206;2022-10-16T08:58:20;6.30;;;5.70;;
23394;SDS011;11870;53.084;18.206;2022-10-16T09:00:55;8.57;;;6.57;;
23394;SDS011;11870;53.084;18.206;2022-10-16T09:09:05;7.18;;;6.03;;
23394;SDS011;11870;53.084;18.206;2022-10-16T09:20:04;8.40;;;5.78;;
23394;SDS011;11870;53.084;18.206;2022-10-16T09:23:01;8.32;;;6.03;;
23394;SDS011;11870;53.084;18.206;2022-10-16T09:25:38;8.38;;;6.50;;
23394;SDS011;11870;53.084;18.206;2022-10-16T09:28:08;8.50;;;6.40;;
23394;SDS011;11870;53.084;18.206;2022-10-16T09:30:34;8.50;;;5.57;;
23394;SDS011;11870;53.084;18.206;2022-10-16T09:33:00;8.95;;;6.22;;
23394;SDS011;11870;53.084;18.206;2022-10-16T09:35:31;9.35;;;6.53;;
23394;SDS011;11870;53.084;18.206;2022-10-16T09:37:58;10.50;;;6.43;;
23394;SDS011;11870;53.084;18.206;2022-10-16T09:40:25;7.90;;;6.22;;
23394;SDS011;11870;53.084;18.206;2022-10-16T09:43:06;8.45;;;5.88;;
23394;SDS011;11870;53.084;18.206;2022-10-16T09:45:42;7.43;;;6.20;;
23394;SDS011;11870;53.084;18.206;2022-10-16T09:48:12;7.57;;;5.68;;
23394;SDS011;11870;53.084;18.206;2022-10-16T09:50:38;7.60;;;6.25;;
23394;SDS011;11870;53.084;18.206;2022-10-16T09:53:11;8.05;;;5.35;;
23394;SDS011;11870;53.084;18.206;2022-10-16T09:55:51;5.93;;;5.20;;
23394;SDS011;11870;53.084;18.206;2022-10-16T09:58:22;8.77;;;5.57;;
23394;SDS011;11870;53.084;18.206;2022-10-16T10:00:50;7.13;;;5.22;;
23394;SDS011;11870;53.084;18.206;2022-10-16T10:03:38;5.65;;;4.75;;
23394;SDS011;11870;53.084;18.206;2022-10-16T10:06:20;6.30;;;5.40;;
23394;SDS011;11870;53.084;18.206;2022-10-16T10:11:52;5.15;;;4.60;;
23394;SDS011;11870;53.084;18.206;2022-10-16T10:14:24;7.72;;;5.75;;
23394;SDS011;11870;53.084;18.206;2022-10-16T10:19:37;5.57;;;4.70;;
23394;SDS011;11870;53.084;18.206;2022-10-16T10:22:18;7.30;;;4.43;;
23394;SDS011;11870;53.084;18.206;2022-10-16T10:25:12;5.43;;;4.53;;
23394;SDS011;11870;53.084;18.206;2022-10-16T10:35:52;5.03;;;4.07;;
23394;SDS011;11870;53.084;18.206;2022-10-16T10:38:45;4.97;;;3.97;;
23394;SDS011;11870;53.084;18.206;2022-10-16T10:41:36;5.50;;;4.35;;
23394;SDS011;11870;53.084;18.206;2022-10-16T10:44:24;5.50;;;4.47;;
23394;SDS011;11870;53.084;18.206;2022-10-16T10:47:32;6.72;;;4.40;;
23394;SDS011;11870;53.084;18.206;2022-10-16T10:59:43;5.93;;;4.38;;
23394;SDS011;11870;53.084;18.206;2022-10-16T11:01:48;6.45;;;4.72;;
23394;SDS011;11870;53.084;18.206;2022-10-16T11:06:55;5.93;;;4.65;;
23394;SDS011;11870;53.084;18.206;2022-10-16T11:14:29;5.88;;;4.35;;
23394;SDS011;11870;53.084;18.206;2022-10-16T11:17:12;4.80;;;4.30;;
23394;SDS011;11870;53.084;18.206;2022-10-16T11:19:49;4.80;;;4.30;;
23394;SDS011;11870;53.084;18.206;2022-10-16T11:30:08;6.43;;;4.18;;
23394;SDS011;11870;53.084;18.206;2022-10-16T11:32:52;6.10;;;4.55;;
23394;SDS011;11870;53.084;18.206;2022-10-16T11:35:36;6.18;;;4.43;;
23394;SDS011;11870;53.084;18.206;2022-10-16T11:38:26;6.18;;;4.50;;
23394;SDS011;11870;53.084;18.206;2022-10-16T11:40:58;6.78;;;4.47;;
23394;SDS011;11870;53.084;18.206;2022-10-16T11:43:38;5.72;;;4.78;;
23394;SDS011;11870;53.084;18.206;2022-10-16T11:46:18;5.65;;;4.13;;
23394;SDS011;11870;53.084;18.206;2022-10-16T11:48:52;5.32;;;4.38;;
23394;SDS011;11870;53.084;18.206;2022-10-16T11:54:54;6.55;;;4.15;;
23394;SDS011;11870;53.084;18.206;2022-10-16T11:57:31;4.28;;;3.83;;
23394;SDS011;11870;53.084;18.206;2022-10-16T12:00:02;5.97;;;4.55;;
23394;SDS011;11870;53.084;18.206;2022-10-16T12:02:53;8.82;;;4.72;;
23394;SDS011;11870;53.084;18.206;2022-10-16T12:08:23;7.72;;;4.78;;
23394;SDS011;11870;53.084;18.206;2022-10-16T12:10:49;8.48;;;4.90;;
23394;SDS011;11870;53.084;18.206;2022-10-16T12:16:19;5.80;;;4.95;;
23394;SDS011;11870;53.084;18.206;2022-10-16T12:18:47;5.57;;;4.50;;
23394;SDS011;11870;53.084;18.206;2022-10-16T12:21:14;5.47;;;4.45;;
23394;SDS011;11870;53.084;18.206;2022-10-16T12:23:51;6.03;;;4.85;;
23394;SDS011;11870;53.084;18.206;2022-10-16T12:28:55;5.95;;;4.75;;
23394;SDS011;11870;53.084;18.206;2022-10-16T12:31:38;5.97;;;4.70;;
23394;SDS011;11870;53.084;18.206;2022-10-16T12:34:20;5.97;;;4.90;;
23394;SDS011;11870;53.084;18.206;2022-10-16T12:36:51;5.65;;;4.53;;
23394;SDS011;11870;53.084;18.206;2022-10-16T12:39:21;6.28;;;4.97;;
23394;SDS011;11870;53.084;18.206;2022-10-16T12:41:59;13.15;;;4.90;;
23394;SDS011;11870;53.084;18.206;2022-10-16T12:44:33;5.95;;;4.95;;
23394;SDS011;11870;53.084;18.206;2022-10-16T12:47:00;5.78;;;4.78;;
23394;SDS011;11870;53.084;18.206;2022-10-16T12:51:53;7.35;;;5.15;;
23394;SDS011;11870;53.084;18.206;2022-10-16T12:54:22;7.47;;;4.75;;
23394;SDS011;11870;53.084;18.206;2022-10-16T12:59:50;5.35;;;4.45;;
23394;SDS011;11870;53.084;18.206;2022-10-16T13:05:21;6.35;;;4.90;;
23394;SDS011;11870;53.084;18.206;2022-10-16T13:08:02;6.88;;;5.00;;
23394;SDS011;11870;53.084;18.206;2022-10-16T13:10:55;7.78;;;5.05;;
23394;SDS011;11870;53.084;18.206;2022-10-16T13:18:57;7.47;;;5.95;;
23394;SDS011;11870;53.084;18.206;2022-10-16T13:21:29;5.97;;;5.13;;
23394;SDS011;11870;53.084;18.206;2022-10-16T13:24:11;5.97;;;4.90;;
23394;SDS011;11870;53.084;18.206;2022-10-16T13:26:49;6.88;;;4.97;;
23394;SDS011;11870;53.084;18.206;2022-10-16T13:29:41;7.03;;;5.28;;
23394;SDS011;11870;53.084;18.206;2022-10-16T13:32:08;8.00;;;4.68;;
23394;SDS011;11870;53.084;18.206;2022-10-16T13:34:46;5.47;;;4.60;;
23394;SDS011;11870;53.084;18.206;2022-10-16T13:37:21;6.20;;;4.85;;
23394;SDS011;11870;53.084;18.206;2022-10-16T13:39:48;7.28;;;5.75;;
23394;SDS011;11870;53.084;18.206;2022-10-16T13:44:54;7.78;;;4.70;;
23394;SDS011;11870;53.084;18.206;2022-10-16T13:52:29;8.18;;;5.15;;
23394;SDS011;11870;53.084;18.206;2022-10-16T13:54:55;6.35;;;4.90;;
23394;SDS011;11870;53.084;18.206;2022-10-16T13:57:22;8.15;;;5.07;;
23394;SDS011;11870;53.084;18.206;2022-10-16T13:59:49;6.80;;;5.30;;
23394;SDS011;11870;53.084;18.206;2022-10-16T14:02:25;7.03;;;5.40;;
23394;SDS011;11870;53.084;18.206;2022-10-16T14:04:53;6.88;;;5.13;;
23394;SDS011;11870;53.084;18.206;2022-10-16T14:07:22;7.22;;;5.85;;
23394;SDS011;11870;53.084;18.206;2022-10-16T14:09:51;6.53;;;5.13;;
23394;SDS011;11870;53.084;18.206;2022-10-16T14:12:18;7.00;;;5.25;;
23394;SDS011;11870;53.084;18.206;2022-10-16T14:14:46;6.30;;;5.13;;
23394;SDS011;11870;53.084;18.206;2022-10-16T14:17:15;7.85;;;5.78;;
23394;SDS011;11870;53.084;18.206;2022-10-16T14:19:50;7.38;;;5.63;;
23394;SDS011;11870;53.084;18.206;2022-10-16T14:22:22;8.18;;;6.00;;
23394;SDS011;11870;53.084;18.206;2022-10-16T14:24:49;7.82;;;6.13;;
23394;SDS011;11870;53.084;18.206;2022-10-16T14:27:31;6.75;;;5.72;;
23394;SDS011;11870;53.084;18.206;2022-10-16T14:30:12;6.78;;;5.78;;
23394;SDS011;11870;53.084;18.206;2022-10-16T14:32:53;7.45;;;6.28;;
23394;SDS011;11870;53.084;18.206;2022-10-16T14:38:01;7.00;;;5.65;;
23394;SDS011;11870;53.084;18.206;2022-10-16T14:40:30;8.35;;;6.10;;
23394;SDS011;11870;53.084;18.206;2022-10-16T14:42:59;8.00;;;5.80;;
23394;SDS011;11870;53.084;18.206;2022-10-16T14:45:30;7.38;;;6.10;;
23394;SDS011;11870;53.084;18.206;2022-10-16T14:48:00;6.88;;;5.80;;
23394;SDS011;11870;53.084;18.206;2022-10-16T14:50:29;6.63;;;5.93;;
23394;SDS011;11870;53.084;18.206;2022-10-16T14:52:55;8.77;;;6.80;;
23394;SDS011;11870;53.084;18.206;2022-10-16T14:55:21;7.47;;;5.80;;
23394;SDS011;11870;53.084;18.206;2022-10-16T14:57:47;7.72;;;6.32;;
23394;SDS011;11870;53.084;18.206;2022-10-16T15:00:18;7.40;;;6.22;;
23394;SDS011;11870;53.084;18.206;2022-10-16T15:02:46;8.75;;;6.68;;
23394;SDS011;11870;53.084;18.206;2022-10-16T15:05:18;9.10;;;6.90;;
23394;SDS011;11870;53.084;18.206;2022-10-16T15:07:49;11.40;;;7.65;;
23394;SDS011;11870;53.084;18.206;2022-10-16T15:10:16;10.23;;;7.72;;
23394;SDS011;11870;53.084;18.206;2022-10-16T15:12:44;11.52;;;8.23;;
23394;SDS011;11870;53.084;18.206;2022-10-16T15:15:55;11.13;;;8.25;;
23394;SDS011;11870;53.084;18.206;2022-10-16T15:18:01;9.90;;;7.40;;
23394;SDS011;11870;53.084;18.206;2022-10-16T15:20:32;11.15;;;8.05;;
23394;SDS011;11870;53.084;18.206;2022-10-16T15:23:04;9.02;;;7.05;;
23394;SDS011;11870;53.084;18.206;2022-10-16T15:25:39;7.65;;;6.28;;
23394;SDS011;11870;53.084;18.206;2022-10-16T15:28:08;9.35;;;7.50;;
23394;SDS011;11870;53.084;18.206;2022-10-16T15:30:36;9.55;;;6.63;;
23394;SDS011;11870;53.084;18.206;2022-10-16T15:33:02;12.50;;;7.80;;
23394;SDS011;11870;53.084;18.206;2022-10-16T15:35:30;12.63;;;9.02;;
23394;SDS011;11870;53.084;18.206;2022-10-16T15:37:56;15.02;;;10.20;;
23394;SDS011;11870;53.084;18.206;2022-10-16T15:40:22;27.98;;;16.88;;
23394;SDS011;11870;53.084;18.206;2022-10-16T15:42:48;34.40;;;22.52;;
23394;SDS011;11870;53.084;18.206;2022-10-16T15:45:15;84.97;;;44.10;;
23394;SDS011;11870;53.084;18.206;2022-10-16T15:47:42;104.20;;;50.05;;
23394;SDS011;11870;53.084;18.206;2022-10-16T15:50:12;35.65;;;19.85;;
23394;SDS011;11870;53.084;18.206;2022-10-16T15:52:39;23.17;;;12.98;;
23394;SDS011;11870;53.084;18.206;2022-10-16T15:55:06;12.18;;;9.13;;
23394;SDS011;11870;53.084;18.206;2022-10-16T15:57:34;12.73;;;9.38;;
23394;SDS011;11870;53.084;18.206;2022-10-16T16:00:05;12.23;;;9.70;;
23394;SDS011;11870;53.084;18.206;2022-10-16T16:02:35;14.52;;;10.15;;
23394;SDS011;11870;53.084;18.206;2022-10-16T16:05:01;13.15;;;10.32;;
23394;SDS011;11870;53.084;18.206;2022-10-16T16:07:27;17.48;;;10.77;;
23394;SDS011;11870;53.084;18.206;2022-10-16T16:09:53;26.58;;;16.77;;
23394;SDS011;11870;53.084;18.206;2022-10-16T16:12:19;20.70;;;13.82;;
23394;SDS011;11870;53.084;18.206;2022-10-16T16:14:45;26.38;;;16.02;;
23394;SDS011;11870;53.084;18.206;2022-10-16T16:17:14;24.08;;;15.02;;
23394;SDS011;11870;53.084;18.206;2022-10-16T16:19:40;28.50;;;18.92;;
23394;SDS011;11870;53.084;18.206;2022-10-16T16:22:06;37.47;;;22.83;;
23394;SDS011;11870;53.084;18.206;2022-10-16T16:24:31;29.02;;;19.60;;
23394;SDS011;11870;53.084;18.206;2022-10-16T16:26:57;36.15;;;21.27;;